Apple Valley, Utah
Current Conditions -  °F | °C
As of 5:55 AM on Friday 28 Nov 2014 (Local Time) from KAZC Reporting Station
Clear Clear  
Wind Chill: 22°   Ceiling: Unl
Heat Index: 28°   Visibility: 10mi
Dew Point: 16°   Wind: 6mph
Humidity: 60%   Direction: 150°SSE
Pressure: 30.22"   Gusts: NA
Location:  37.2274°N, 113.139°W
Report Text: KAZC 281255Z AUTO 15005KT 10SM CLR M02/M09 A3022 RMK AO2 T10201088
Loading
Personal Weather Stations






























Interactive Weather Map New forecast layout! Learn more

10-Day Weather Forecast

Advertisements
Track Severe Weather on mobile